KLPC/LPC METAR and TAF weather

Enter ICAO airport designator
Station Type Date Time Source
KLPC METAR 2019/10/19 06:56 UTC NOAA

KLPC 190656Z AUTO 26006KT 10SM CLR 12/09 A3002 RMK AO2 SLP167 T01220094


Station Type Date Time Source
KLPC Decoded METAR 2019/10/19 06:56 UTC NOAA

Lompoc, Lompoc Airport, CA, United States (KLPC) 34-40N 120-28W
Oct 19, 2019 - 02:56 AM EDT / 2019.10.19 0656 UTC
Wind: from the W (260 degrees) at 7 MPH (6 KT):0
Visibility: 10 mile(s):0
Sky conditions: clear
Temperature: 54.0 F (12.2 C)
Dew Point: 48.9 F (9.4 C)
Relative Humidity: 82%
Pressure (altimeter): 30.02 in. Hg (1016 hPa)
ob: KLPC 190656Z AUTO 26006KT 10SM CLR 12/09 A3002 RMK AO2 SLP167 T01220094
cycle: 7

Station Type Date Time Source
KLPC TAF UTC NOAA

Error!

Example: see airport list